Aérodrome :
LOGIN :

S'inscrire | Disclaimer

   EN    FR    IT 

 










Légende :    VFR   VFR Marginal   IFR   IFR Intensif   IFR Très Intensif
Visi : 
Plafond : 
>= 8 km
>= 3000ft
5 à 8 km
1000 à 3000 ft
1500m à 5 km
500 à 1000 ft
800 à 1500m
200 à 500 ft
< 800m
< 200 ft
Symboles :   Orages  Brouillard  Fortes neiges  Fortes précipitations  Vent > 20 kt
SIGMETs :   Divers  Orages  Givrage  Turbulence  Onde Orograph.  Cendres Volcan.







- Altitude de l'aérodrome : 2595 ft
- Code IATA : SLM


LESA - Salamanca Matacan

DERNIER METAR :
  • 160130Z AUTO VRB02KT 9999 NCD 14/12 Q1018

METARs EXPIRÉS :
  • 160100Z AUTO VRB01KT 9999 NCD 14/12 Q1018
  • 160030Z AUTO 00000KT 9000 NCD 14/12 Q1018
  • 160000Z AUTO 00000KT 7000 NCD 15/12 Q1018
  • 152330Z AUTO 05001KT 9999 NCD 16/13 Q1018
  • 152300Z AUTO 00000KT 9999 NCD 16/13 Q1018

TAF TAF LESA
Valide du 16 à 00h jusqu'au 17 à 00h UTC


152300Z 1600/1624 VRB05KT CAVOK TX34/1615Z TN13/1606Z
BECMG 1612/1614 32010KT
PROB30
TEMPO 1612/1619 FEW040TCU
BECMG 1620/1622 05013KT
Pas de NOTAMs connus pour ce terrain.
1 SIGMET publié pour la FIR Madrid (LECM) :
 
Orages noyés dans la masse
LECM SIGMET 1 VALID 160020/160230 LEVA
LECM MADRID FIR/UIR EMBD TS OBS AT 0020Z WI N4110 W00219 - N4042 W00045 - N3807 W00130 - N3847 W00313 - N4110 W00219 TOP FL350 STNR NC=



MET'MAP, la Météo Aéronautique d'un coup d'oeil ! - Copyright ORBIFLY Décembre 2007 - Disclaimer

ORBIFLY MET'MAP TEAM :

Programmation & Développement : Alexandra Zaïnal
Conception & Développement : Baudouin d'Aumeries
Co-Programmation & Développement : Marc-Olivier Méhu
Soutien technique & logistique : Manuel Goepfert

Contact : metmap@orbifly.com




SOURCES & CREDITS :

   NOAA